TABULAR FORECAST OF EN-ROUTE CONDITIONS LOW LEVEL                       MODEL TA1

DATE: MARCH 14, 2016                                                                                 HEIGHT IN FEET MSL

VALID FOR DEPARTURE/ARRIVAL BETWEEN 15.00UTC AND 21.30UTC.

SPECIAL FEATURES OF THE METEOROLOGICAL SITUATION:

MID/UPPER TROUGH INFLUENCE

07° N                            4° N                            2° N

UPPER WINDS

(DEGREES TRUE AND KNOTS)

                              10000FT                       

                              5000FT

TEMPERATURE 2000FT

(DEGREES CELSIUS)

 

 

 

                           060/30   PS 09

                               060/20   PS 16

                               040/15   PS 21           

                

 

CLOUDS

               8000                                        XXX

 SCT CU —— ISOL EMBD TCU/CB ——

                1500                                       1800

              6000                                XXX     

SCT SC ——     BKN AC LYR   ——           

              3500                                 9000  

                         

VISIBILITY

5KM IN RAINSHOWERS

SIGNIFICANT WEATHER

WIDELY SCATTERED LIGHT TO MODERATE RAINSHOWERS

HEIGHT OF 0ºC ISOTHERM (ft)

15000

FORECAST LOWEST QNH (hPa)

1012

SUPPLEMENTARY INFORMATION

Issued at NMC on: 15.00UTC MARCH 14, 2016 BY FORECASTER: T.S.WARSODIKROMO:

 

 

1.   Positive and negative values are indicated by the prefix “PS” (plus) and “MS” (minus) respectively.

2.   When a single numerical value of an element is given in a forecast, it is to be interpreted as representing the most probable mean of a range of values which the element may assume during the period of the forecast.

 

ABBREVIATIONS: SKC – 0 oktas, FEW – 1 to 2 oktas, SCT – 3 to 4 oktas, BKN – 5 to 7 oktas,  

OVC – 8 oktas, LYR – Layered, LOC – Locally, ISOL – Isolated, OCNL – Occasional, FRQ – Frequent.

 

METAR SMJP 141500Z 08008KT 040V110 9999 SCT022 30/24 Q1015 NOSIG=

METAR SMZO 141500Z 10008KT 9999 BKN025 31/23 Q1014 NOSIG=

METAR SMNI 141500Z 07006KT 9999 FEW020 FEW030CB 29/24 Q1015=

METAR SMST 141500Z 09004KT 9999 SCT020 29/23 Q////=